sensor_id;sensor_type;location;lat;lon;timestamp;pressure;altitude;pressure_sealevel;temperature;humidity
7180;BME280;3631;42.152;24.756;2022-07-22T00:01:43;99358.75;;;25.02;69.52
7180;BME280;3631;42.152;24.756;2022-07-22T00:04:10;99354.25;;;25.02;69.48
7180;BME280;3631;42.152;24.756;2022-07-22T00:06:37;99354.25;;;25.02;69.57
7180;BME280;3631;42.152;24.756;2022-07-22T00:09:05;99362.38;;;25.10;69.30
7180;BME280;3631;42.152;24.756;2022-07-22T00:11:32;99359.31;;;25.05;69.77
7180;BME280;3631;42.152;24.756;2022-07-22T00:13:59;99369.22;;;24.93;70.07
7180;BME280;3631;42.152;24.756;2022-07-22T00:16:26;99371.81;;;24.84;70.54
7180;BME280;3631;42.152;24.756;2022-07-22T00:18:53;99376.44;;;24.82;70.78
7180;BME280;3631;42.152;24.756;2022-07-22T00:21:20;99371.41;;;24.79;70.81
7180;BME280;3631;42.152;24.756;2022-07-22T00:23:47;99372.94;;;24.81;70.79
7180;BME280;3631;42.152;24.756;2022-07-22T00:26:15;99372.25;;;24.89;70.50
7180;BME280;3631;42.152;24.756;2022-07-22T00:28:42;99384.16;;;24.94;70.15
7180;BME280;3631;42.152;24.756;2022-07-22T00:31:09;99373.53;;;24.94;70.05
7180;BME280;3631;42.152;24.756;2022-07-22T00:33:36;99372.13;;;24.90;70.00
7180;BME280;3631;42.152;24.756;2022-07-22T00:36:04;99365.16;;;24.99;69.84
7180;BME280;3631;42.152;24.756;2022-07-22T00:38:31;99369.94;;;25.05;69.47
7180;BME280;3631;42.152;24.756;2022-07-22T00:40:58;99372.41;;;24.97;69.80
7180;BME280;3631;42.152;24.756;2022-07-22T00:43:27;99372.72;;;24.94;70.11
7180;BME280;3631;42.152;24.756;2022-07-22T00:45:54;99382.50;;;25.03;69.76
7180;BME280;3631;42.152;24.756;2022-07-22T00:48:21;99377.47;;;25.00;69.65
7180;BME280;3631;42.152;24.756;2022-07-22T00:50:48;99376.88;;;24.96;69.76
7180;BME280;3631;42.152;24.756;2022-07-22T00:53:15;99375.22;;;24.95;69.79
7180;BME280;3631;42.152;24.756;2022-07-22T00:55:42;99370.28;;;24.72;70.88
7180;BME280;3631;42.152;24.756;2022-07-22T00:58:09;99372.50;;;24.67;71.50
7180;BME280;3631;42.152;24.756;2022-07-22T01:00:38;99380.47;;;24.67;71.56
7180;BME280;3631;42.152;24.756;2022-07-22T01:03:05;99370.41;;;24.70;71.36
7180;BME280;3631;42.152;24.756;2022-07-22T01:05:32;99369.28;;;24.63;71.72
7180;BME280;3631;42.152;24.756;2022-07-22T01:07:59;99374.88;;;24.70;71.36
7180;BME280;3631;42.152;24.756;2022-07-22T01:10:26;99381.03;;;24.70;71.34
7180;BME280;3631;42.152;24.756;2022-07-22T01:12:52;99381.16;;;24.69;71.04
7180;BME280;3631;42.152;24.756;2022-07-22T01:15:19;99385.78;;;24.67;70.86
7180;BME280;3631;42.152;24.756;2022-07-22T01:17:48;99380.47;;;24.67;70.97
7180;BME280;3631;42.152;24.756;2022-07-22T01:20:16;99379.03;;;24.63;70.59
7180;BME280;3631;42.152;24.756;2022-07-22T01:22:43;99383.50;;;24.62;70.93
7180;BME280;3631;42.152;24.756;2022-07-22T01:25:10;99382.97;;;24.58;71.06
7180;BME280;3631;42.152;24.756;2022-07-22T01:27:37;99386.16;;;24.62;70.92
7180;BME280;3631;42.152;24.756;2022-07-22T01:30:05;99385.06;;;24.65;71.01
7180;BME280;3631;42.152;24.756;2022-07-22T01:32:33;99379.34;;;24.59;71.25
7180;BME280;3631;42.152;24.756;2022-07-22T01:35:00;99385.22;;;24.73;70.06
7180;BME280;3631;42.152;24.756;2022-07-22T01:37:28;99378.25;;;24.72;70.19
7180;BME280;3631;42.152;24.756;2022-07-22T01:39:55;99389.13;;;24.69;70.01
7180;BME280;3631;42.152;24.756;2022-07-22T01:42:22;99374.03;;;24.59;70.43
7180;BME280;3631;42.152;24.756;2022-07-22T01:44:49;99374.56;;;24.63;70.23
7180;BME280;3631;42.152;24.756;2022-07-22T01:47:16;99377.94;;;24.65;70.01
7180;BME280;3631;42.152;24.756;2022-07-22T01:49:43;99372.34;;;24.58;70.69
7180;BME280;3631;42.152;24.756;2022-07-22T01:52:10;99366.75;;;24.61;70.24
7180;BME280;3631;42.152;24.756;2022-07-22T01:54:39;99368.28;;;24.54;71.13
7180;BME280;3631;42.152;24.756;2022-07-22T01:57:06;99367.28;;;24.46;71.61
7180;BME280;3631;42.152;24.756;2022-07-22T01:59:32;99365.59;;;24.45;71.62
7180;BME280;3631;42.152;24.756;2022-07-22T02:01:59;99373.13;;;24.40;72.09
7180;BME280;3631;42.152;24.756;2022-07-22T02:04:27;99366.59;;;24.44;72.08
7180;BME280;3631;42.152;24.756;2022-07-22T02:06:54;99376.81;;;24.48;71.56
7180;BME280;3631;42.152;24.756;2022-07-22T02:09:21;99374.81;;;24.50;72.01
7180;BME280;3631;42.152;24.756;2022-07-22T02:11:49;99358.06;;;24.50;71.92
7180;BME280;3631;42.152;24.756;2022-07-22T02:14:16;99362.25;;;24.43;72.30
7180;BME280;3631;42.152;24.756;2022-07-22T02:16:43;99360.28;;;24.35;72.48
7180;BME280;3631;42.152;24.756;2022-07-22T02:19:10;99362.09;;;24.35;72.96
7180;BME280;3631;42.152;24.756;2022-07-22T02:21:37;99354.38;;;24.22;73.30
7180;BME280;3631;42.152;24.756;2022-07-22T02:24:04;99358.44;;;24.26;73.55
7180;BME280;3631;42.152;24.756;2022-07-22T02:26:31;99362.75;;;24.27;73.69
7180;BME280;3631;42.152;24.756;2022-07-22T02:29:00;99365.28;;;24.29;73.60
7180;BME280;3631;42.152;24.756;2022-07-22T02:31:27;99361.59;;;24.20;73.45
7180;BME280;3631;42.152;24.756;2022-07-22T02:33:54;99358.44;;;24.05;73.50
7180;BME280;3631;42.152;24.756;2022-07-22T02:36:21;99358.94;;;23.89;74.37
7180;BME280;3631;42.152;24.756;2022-07-22T02:38:48;99358.25;;;23.87;74.62
7180;BME280;3631;42.152;24.756;2022-07-22T02:41:15;99352.06;;;23.77;74.90
7180;BME280;3631;42.152;24.756;2022-07-22T02:43:42;99350.13;;;23.79;74.92
7180;BME280;3631;42.152;24.756;2022-07-22T02:46:10;99348.19;;;23.81;74.90
7180;BME280;3631;42.152;24.756;2022-07-22T02:48:37;99361.09;;;23.75;75.35
7180;BME280;3631;42.152;24.756;2022-07-22T02:51:04;99348.91;;;23.63;75.68
7180;BME280;3631;42.152;24.756;2022-07-22T02:53:31;99346.50;;;23.60;75.67
7180;BME280;3631;42.152;24.756;2022-07-22T02:55:58;99351.50;;;23.53;75.96
7180;BME280;3631;42.152;24.756;2022-07-22T02:58:25;99347.38;;;23.49;76.50
7180;BME280;3631;42.152;24.756;2022-07-22T03:00:52;99342.75;;;23.41;77.94
7180;BME280;3631;42.152;24.756;2022-07-22T03:03:20;99345.13;;;23.44;78.18
7180;BME280;3631;42.152;24.756;2022-07-22T03:05:47;99344.28;;;23.44;78.23
7180;BME280;3631;42.152;24.756;2022-07-22T03:08:14;99339.44;;;23.49;77.89
7180;BME280;3631;42.152;24.756;2022-07-22T03:10:41;99343.41;;;23.55;77.85
7180;BME280;3631;42.152;24.756;2022-07-22T03:13:08;99345.97;;;23.45;78.48
7180;BME280;3631;42.152;24.756;2022-07-22T03:15:35;99349.13;;;23.39;79.11
7180;BME280;3631;42.152;24.756;2022-07-22T03:18:02;99351.66;;;23.40;79.29
7180;BME280;3631;42.152;24.756;2022-07-22T03:20:31;99355.66;;;23.35;79.83
7180;BME280;3631;42.152;24.756;2022-07-22T03:22:59;99347.13;;;23.31;79.98
7180;BME280;3631;42.152;24.756;2022-07-22T03:25:26;99360.25;;;23.33;80.20
7180;BME280;3631;42.152;24.756;2022-07-22T03:27:53;99362.38;;;23.39;79.70
7180;BME280;3631;42.152;24.756;2022-07-22T03:30:20;99370.59;;;23.36;80.27
7180;BME280;3631;42.152;24.756;2022-07-22T03:32:47;99355.72;;;23.24;80.76
7180;BME280;3631;42.152;24.756;2022-07-22T03:35:15;99360.44;;;23.20;81.12
7180;BME280;3631;42.152;24.756;2022-07-22T03:37:44;99360.88;;;23.25;81.31
7180;BME280;3631;42.152;24.756;2022-07-22T03:40:12;99365.69;;;23.31;81.12
7180;BME280;3631;42.152;24.756;2022-07-22T03:42:40;99361.72;;;23.26;82.00
7180;BME280;3631;42.152;24.756;2022-07-22T03:45:08;99368.06;;;23.34;81.67
7180;BME280;3631;42.152;24.756;2022-07-22T03:47:35;99363.34;;;23.38;81.49
7180;BME280;3631;42.152;24.756;2022-07-22T03:50:03;99361.56;;;23.59;79.98
7180;BME280;3631;42.152;24.756;2022-07-22T03:52:31;99361.69;;;23.78;78.83
7180;BME280;3631;42.152;24.756;2022-07-22T03:54:59;99372.03;;;23.81;78.78
7180;BME280;3631;42.152;24.756;2022-07-22T03:57:26;99372.13;;;24.01;77.51
7180;BME280;3631;42.152;24.756;2022-07-22T03:59:54;99369.03;;;24.85;73.65
7180;BME280;3631;42.152;24.756;2022-07-22T04:02:21;99385.31;;;26.06;67.29
7180;BME280;3631;42.152;24.756;2022-07-22T04:04:48;99404.78;;;27.16;62.21
7180;BME280;3631;42.152;24.756;2022-07-22T04:07:15;99406.31;;;28.06;58.37
7180;BME280;3631;42.152;24.756;2022-07-22T04:09:42;99393.63;;;28.76;55.87
7180;BME280;3631;42.152;24.756;2022-07-22T04:12:10;99398.56;;;29.70;52.54
7180;BME280;3631;42.152;24.756;2022-07-22T04:14:37;99399.09;;;30.37;50.41
7180;BME280;3631;42.152;24.756;2022-07-22T04:17:04;99397.88;;;30.86;48.71
7180;BME280;3631;42.152;24.756;2022-07-22T04:19:31;99407.72;;;31.25;47.26
7180;BME280;3631;42.152;24.756;2022-07-22T04:21:58;99401.91;;;31.59;46.27
7180;BME280;3631;42.152;24.756;2022-07-22T04:24:25;99404.34;;;32.35;44.27
7180;BME280;3631;42.152;24.756;2022-07-22T04:26:52;99405.06;;;33.31;41.92
7180;BME280;3631;42.152;24.756;2022-07-22T04:29:20;99403.34;;;34.00;40.58
7180;BME280;3631;42.152;24.756;2022-07-22T04:31:47;99408.19;;;34.39;39.41
7180;BME280;3631;42.152;24.756;2022-07-22T04:34:14;99408.69;;;35.10;37.37
7180;BME280;3631;42.152;24.756;2022-07-22T04:36:41;99409.34;;;35.32;36.86
7180;BME280;3631;42.152;24.756;2022-07-22T04:39:08;99420.78;;;35.54;36.49
7180;BME280;3631;42.152;24.756;2022-07-22T04:41:34;99420.75;;;36.26;35.45
7180;BME280;3631;42.152;24.756;2022-07-22T04:44:01;99426.84;;;36.80;34.28
7180;BME280;3631;42.152;24.756;2022-07-22T04:46:30;99420.91;;;37.34;33.80
7180;BME280;3631;42.152;24.756;2022-07-22T04:48:57;99427.63;;;36.80;33.89
7180;BME280;3631;42.152;24.756;2022-07-22T04:51:24;99433.72;;;36.69;33.84
7180;BME280;3631;42.152;24.756;2022-07-22T04:53:50;99431.53;;;36.40;34.08
7180;BME280;3631;42.152;24.756;2022-07-22T04:56:17;99435.50;;;36.30;34.73
7180;BME280;3631;42.152;24.756;2022-07-22T04:58:44;99430.38;;;35.76;35.55
7180;BME280;3631;42.152;24.756;2022-07-22T05:01:11;99422.88;;;35.78;35.06
7180;BME280;3631;42.152;24.756;2022-07-22T05:03:40;99420.59;;;35.88;35.19
7180;BME280;3631;42.152;24.756;2022-07-22T05:06:08;99431.91;;;36.56;34.18
7180;BME280;3631;42.152;24.756;2022-07-22T05:08:35;99417.09;;;36.59;33.90
7180;BME280;3631;42.152;24.756;2022-07-22T05:11:02;99412.09;;;36.62;34.02
7180;BME280;3631;42.152;24.756;2022-07-22T05:13:29;99428.13;;;36.57;33.94
7180;BME280;3631;42.152;24.756;2022-07-22T05:15:56;99421.25;;;37.06;33.22
7180;BME280;3631;42.152;24.756;2022-07-22T05:18:23;99427.41;;;37.58;32.28
7180;BME280;3631;42.152;24.756;2022-07-22T05:20:52;99422.06;;;38.37;31.01
7180;BME280;3631;42.152;24.756;2022-07-22T05:23:18;99420.72;;;38.46;30.63
7180;BME280;3631;42.152;24.756;2022-07-22T05:25:45;99422.38;;;38.47;31.30
7180;BME280;3631;42.152;24.756;2022-07-22T05:28:15;99423.38;;;38.71;30.83
7180;BME280;3631;42.152;24.756;2022-07-22T05:30:42;99424.72;;;38.62;30.73
7180;BME280;3631;42.152;24.756;2022-07-22T05:33:09;99425.59;;;38.74;30.90
7180;BME280;3631;42.152;24.756;2022-07-22T05:35:35;99424.56;;;38.57;30.97
7180;BME280;3631;42.152;24.756;2022-07-22T05:38:04;99417.28;;;38.88;30.38
7180;BME280;3631;42.152;24.756;2022-07-22T05:40:31;99428.00;;;39.01;29.86
7180;BME280;3631;42.152;24.756;2022-07-22T05:42:58;99417.31;;;38.51;30.63
7180;BME280;3631;42.152;24.756;2022-07-22T05:45:25;99422.22;;;38.24;31.42
7180;BME280;3631;42.152;24.756;2022-07-22T05:47:52;99422.88;;;38.93;30.93
7180;BME280;3631;42.152;24.756;2022-07-22T05:50:19;99405.56;;;38.39;30.44
7180;BME280;3631;42.152;24.756;2022-07-22T05:52:46;99413.09;;;38.73;31.12
7180;BME280;3631;42.152;24.756;2022-07-22T05:55:14;99418.16;;;39.30;29.43
7180;BME280;3631;42.152;24.756;2022-07-22T05:57:42;99414.88;;;39.39;29.67
7180;BME280;3631;42.152;24.756;2022-07-22T06:00:09;99420.25;;;39.58;29.50
7180;BME280;3631;42.152;24.756;2022-07-22T06:02:37;99419.34;;;39.87;28.81
7180;BME280;3631;42.152;24.756;2022-07-22T06:05:04;99415.75;;;40.45;28.33
7180;BME280;3631;42.152;24.756;2022-07-22T06:07:31;99411.47;;;40.60;27.99
7180;BME280;3631;42.152;24.756;2022-07-22T06:09:58;99406.13;;;39.26;29.54
7180;BME280;3631;42.152;24.756;2022-07-22T06:12:26;99401.50;;;38.96;30.22
7180;BME280;3631;42.152;24.756;2022-07-22T06:14:53;99410.88;;;39.00;30.68
7180;BME280;3631;42.152;24.756;2022-07-22T06:17:20;99403.28;;;39.32;30.03
7180;BME280;3631;42.152;24.756;2022-07-22T06:19:47;99403.94;;;38.56;30.80
7180;BME280;3631;42.152;24.756;2022-07-22T06:22:14;99405.41;;;38.52;30.30
7180;BME280;3631;42.152;24.756;2022-07-22T06:24:42;99410.31;;;39.10;29.85
7180;BME280;3631;42.152;24.756;2022-07-22T06:27:10;99406.81;;;39.21;28.93
7180;BME280;3631;42.152;24.756;2022-07-22T06:29:38;99406.22;;;39.31;29.51
7180;BME280;3631;42.152;24.756;2022-07-22T06:32:06;99406.31;;;40.12;28.16
7180;BME280;3631;42.152;24.756;2022-07-22T06:34:33;99404.41;;;39.54;27.96
7180;BME280;3631;42.152;24.756;2022-07-22T06:37:00;99402.06;;;38.86;28.90
7180;BME280;3631;42.152;24.756;2022-07-22T06:39:27;99387.88;;;38.55;29.77
7180;BME280;3631;42.152;24.756;2022-07-22T06:41:53;99399.84;;;38.95;29.17
7180;BME280;3631;42.152;24.756;2022-07-22T06:44:20;99399.16;;;38.70;29.00
7180;BME280;3631;42.152;24.756;2022-07-22T06:46:49;99397.75;;;38.97;28.76
7180;BME280;3631;42.152;24.756;2022-07-22T06:49:16;99392.59;;;39.07;28.90
7180;BME280;3631;42.152;24.756;2022-07-22T06:51:42;99396.53;;;39.23;28.63
7180;BME280;3631;42.152;24.756;2022-07-22T06:54:09;99386.94;;;38.79;29.41
7180;BME280;3631;42.152;24.756;2022-07-22T06:56:36;99401.06;;;38.69;29.05
7180;BME280;3631;42.152;24.756;2022-07-22T06:59:03;99399.94;;;38.22;29.15
7180;BME280;3631;42.152;24.756;2022-07-22T07:01:30;99394.81;;;38.14;29.67
7180;BME280;3631;42.152;24.756;2022-07-22T07:03:58;99395.63;;;38.69;29.25
7180;BME280;3631;42.152;24.756;2022-07-22T07:06:25;99393.59;;;38.28;29.76
7180;BME280;3631;42.152;24.756;2022-07-22T07:08:52;99389.28;;;38.02;30.04
7180;BME280;3631;42.152;24.756;2022-07-22T07:11:19;99399.06;;;38.40;29.14
7180;BME280;3631;42.152;24.756;2022-07-22T07:13:46;99398.72;;;38.55;29.21
7180;BME280;3631;42.152;24.756;2022-07-22T07:16:13;99399.13;;;38.58;30.35
7180;BME280;3631;42.152;24.756;2022-07-22T07:18:40;99402.72;;;38.70;29.28
7180;BME280;3631;42.152;24.756;2022-07-22T07:21:08;99402.06;;;38.86;28.93
7180;BME280;3631;42.152;24.756;2022-07-22T07:23:35;99404.59;;;38.70;28.77
7180;BME280;3631;42.152;24.756;2022-07-22T07:26:02;99405.28;;;38.65;29.06
7180;BME280;3631;42.152;24.756;2022-07-22T07:28:29;99401.06;;;38.69;28.91
7180;BME280;3631;42.152;24.756;2022-07-22T07:30:56;99413.41;;;38.65;28.60
7180;BME280;3631;42.152;24.756;2022-07-22T07:33:23;99401.06;;;38.33;28.76
7180;BME280;3631;42.152;24.756;2022-07-22T07:35:50;99391.81;;;37.97;29.71
7180;BME280;3631;42.152;24.756;2022-07-22T07:38:19;99396.00;;;38.36;28.80
7180;BME280;3631;42.152;24.756;2022-07-22T07:40:46;99390.09;;;38.03;29.34
7180;BME280;3631;42.152;24.756;2022-07-22T07:43:13;99397.25;;;38.52;29.06
7180;BME280;3631;42.152;24.756;2022-07-22T07:45:40;99392.69;;;38.53;29.43
7180;BME280;3631;42.152;24.756;2022-07-22T07:48:07;99377.13;;;38.78;28.96
7180;BME280;3631;42.152;24.756;2022-07-22T07:50:34;99398.72;;;39.44;28.00
7180;BME280;3631;42.152;24.756;2022-07-22T07:53:01;99408.19;;;39.53;27.74
7180;BME280;3631;42.152;24.756;2022-07-22T07:55:29;99400.66;;;39.79;27.56
7180;BME280;3631;42.152;24.756;2022-07-22T07:57:56;99408.50;;;40.62;26.68
7180;BME280;3631;42.152;24.756;2022-07-22T08:00:24;99408.06;;;41.10;25.89
7180;BME280;3631;42.152;24.756;2022-07-22T08:02:54;99410.94;;;41.65;25.34
7180;BME280;3631;42.152;24.756;2022-07-22T08:05:21;99402.50;;;41.33;25.66
7180;BME280;3631;42.152;24.756;2022-07-22T08:07:49;99399.03;;;41.38;25.84
7180;BME280;3631;42.152;24.756;2022-07-22T08:10:16;99398.47;;;41.53;25.50
7180;BME280;3631;42.152;24.756;2022-07-22T08:12:45;99400.13;;;41.87;25.50
7180;BME280;3631;42.152;24.756;2022-07-22T08:15:12;99395.38;;;42.16;24.77
7180;BME280;3631;42.152;24.756;2022-07-22T08:17:39;99391.28;;;41.80;24.28
7180;BME280;3631;42.152;24.756;2022-07-22T08:20:09;99391.31;;;42.19;24.50
7180;BME280;3631;42.152;24.756;2022-07-22T08:22:36;99384.50;;;41.83;24.38
7180;BME280;3631;42.152;24.756;2022-07-22T08:25:03;99385.41;;;42.27;23.96
7180;BME280;3631;42.152;24.756;2022-07-22T08:27:31;99392.97;;;42.85;23.71
7180;BME280;3631;42.152;24.756;2022-07-22T08:29:59;99394.72;;;41.92;23.66
7180;BME280;3631;42.152;24.756;2022-07-22T08:32:29;99384.22;;;41.62;24.99
7180;BME280;3631;42.152;24.756;2022-07-22T08:34:56;99378.00;;;41.50;24.95
7180;BME280;3631;42.152;24.756;2022-07-22T08:37:23;99388.44;;;40.80;25.59
7180;BME280;3631;42.152;24.756;2022-07-22T08:39:51;99389.72;;;40.49;25.82
7180;BME280;3631;42.152;24.756;2022-07-22T08:42:20;99387.16;;;40.07;26.18
7180;BME280;3631;42.152;24.756;2022-07-22T08:44:47;99380.19;;;39.76;26.38
7180;BME280;3631;42.152;24.756;2022-07-22T08:47:20;99362.66;;;39.14;26.88
7180;BME280;3631;42.152;24.756;2022-07-22T08:49:47;99382.91;;;39.41;27.26
7180;BME280;3631;42.152;24.756;2022-07-22T08:52:14;99382.19;;;39.46;27.12
7180;BME280;3631;42.152;24.756;2022-07-22T08:54:42;99377.88;;;39.15;27.95
7180;BME280;3631;42.152;24.756;2022-07-22T08:57:09;99385.84;;;39.51;27.53
7180;BME280;3631;42.152;24.756;2022-07-22T08:59:48;99383.41;;;39.50;26.73
7180;BME280;3631;42.152;24.756;2022-07-22T09:02:17;99381.38;;;39.04;27.90
7180;BME280;3631;42.152;24.756;2022-07-22T09:04:52;99387.22;;;39.31;27.49
7180;BME280;3631;42.152;24.756;2022-07-22T09:07:27;99383.03;;;39.05;27.53
7180;BME280;3631;42.152;24.756;2022-07-22T09:09:55;99380.69;;;39.20;27.48
7180;BME280;3631;42.152;24.756;2022-07-22T09:12:22;99387.09;;;39.26;27.28
7180;BME280;3631;42.152;24.756;2022-07-22T09:14:51;99378.81;;;39.20;27.18
7180;BME280;3631;42.152;24.756;2022-07-22T09:17:28;99378.44;;;39.05;27.19
7180;BME280;3631;42.152;24.756;2022-07-22T09:19:56;99375.19;;;39.27;27.15
7180;BME280;3631;42.152;24.756;2022-07-22T09:22:40;99387.75;;;39.51;26.88
7180;BME280;3631;42.152;24.756;2022-07-22T09:25:19;99386.69;;;39.64;26.79
7180;BME280;3631;42.152;24.756;2022-07-22T09:27:47;99385.63;;;39.65;26.09
7180;BME280;3631;42.152;24.756;2022-07-22T09:30:16;99386.59;;;39.70;26.77
7180;BME280;3631;42.152;24.756;2022-07-22T09:32:45;99379.50;;;39.46;26.46
7180;BME280;3631;42.152;24.756;2022-07-22T09:35:13;99368.72;;;39.63;26.45
7180;BME280;3631;42.152;24.756;2022-07-22T09:37:52;99377.75;;;39.86;25.97
7180;BME280;3631;42.152;24.756;2022-07-22T09:40:20;99375.38;;;39.90;26.05
7180;BME280;3631;42.152;24.756;2022-07-22T09:42:50;99375.50;;;39.83;26.10
7180;BME280;3631;42.152;24.756;2022-07-22T09:45:18;99366.75;;;39.81;26.30
7180;BME280;3631;42.152;24.756;2022-07-22T09:47:48;99368.50;;;39.99;25.97
7180;BME280;3631;42.152;24.756;2022-07-22T09:50:20;99364.84;;;40.29;26.05
7180;BME280;3631;42.152;24.756;2022-07-22T09:52:48;99369.44;;;40.16;26.02
7180;BME280;3631;42.152;24.756;2022-07-22T09:55:17;99371.78;;;40.24;25.84
7180;BME280;3631;42.152;24.756;2022-07-22T09:57:45;99371.09;;;40.17;25.92
7180;BME280;3631;42.152;24.756;2022-07-22T10:00:14;99365.66;;;40.17;26.02
7180;BME280;3631;42.152;24.756;2022-07-22T10:02:47;99368.47;;;40.22;25.87
7180;BME280;3631;42.152;24.756;2022-07-22T10:05:15;99363.78;;;40.06;25.83
7180;BME280;3631;42.152;24.756;2022-07-22T10:07:44;99358.19;;;40.24;26.01
7180;BME280;3631;42.152;24.756;2022-07-22T10:10:13;99360.59;;;39.98;26.26
7180;BME280;3631;42.152;24.756;2022-07-22T10:12:43;99353.53;;;39.62;26.59
7180;BME280;3631;42.152;24.756;2022-07-22T10:15:11;99355.47;;;39.31;26.67
7180;BME280;3631;42.152;24.756;2022-07-22T10:17:42;99351.31;;;39.05;26.61
7180;BME280;3631;42.152;24.756;2022-07-22T10:20:11;99348.06;;;38.97;27.36
7180;BME280;3631;42.152;24.756;2022-07-22T10:22:50;99349.50;;;38.99;27.33
7180;BME280;3631;42.152;24.756;2022-07-22T10:25:18;99337.75;;;38.39;27.45
7180;BME280;3631;42.152;24.756;2022-07-22T10:27:47;99334.38;;;38.07;28.58
7180;BME280;3631;42.152;24.756;2022-07-22T10:30:17;99338.38;;;37.86;28.21
7180;BME280;3631;42.152;24.756;2022-07-22T10:32:44;99322.94;;;37.43;28.90
7180;BME280;3631;42.152;24.756;2022-07-22T10:35:25;99321.28;;;37.42;28.66
7180;BME280;3631;42.152;24.756;2022-07-22T10:37:55;99329.50;;;37.29;29.09
7180;BME280;3631;42.152;24.756;2022-07-22T10:40:23;99318.16;;;37.39;29.18
7180;BME280;3631;42.152;24.756;2022-07-22T10:43:06;99323.31;;;37.47;29.06
7180;BME280;3631;42.152;24.756;2022-07-22T10:45:37;99306.06;;;37.41;28.79
7180;BME280;3631;42.152;24.756;2022-07-22T10:48:06;99315.31;;;37.34;29.08
7180;BME280;3631;42.152;24.756;2022-07-22T10:50:47;99313.56;;;37.15;28.92
7180;BME280;3631;42.152;24.756;2022-07-22T10:53:18;99319.09;;;37.01;29.41
7180;BME280;3631;42.152;24.756;2022-07-22T10:56:00;99315.59;;;36.94;28.91
7180;BME280;3631;42.152;24.756;2022-07-22T10:58:55;99315.84;;;36.48;29.74
7180;BME280;3631;42.152;24.756;2022-07-22T11:01:25;99300.88;;;36.52;29.84
7180;BME280;3631;42.152;24.756;2022-07-22T11:03:53;99306.31;;;36.46;30.01
7180;BME280;3631;42.152;24.756;2022-07-22T11:06:25;99313.97;;;36.49;30.34
7180;BME280;3631;42.152;24.756;2022-07-22T11:08:53;99308.78;;;36.47;29.93
7180;BME280;3631;42.152;24.756;2022-07-22T11:11:35;99303.81;;;36.44;29.41
7180;BME280;3631;42.152;24.756;2022-07-22T11:14:08;99308.56;;;36.55;28.81
7180;BME280;3631;42.152;24.756;2022-07-22T11:16:37;99296.69;;;36.56;28.95
7180;BME280;3631;42.152;24.756;2022-07-22T11:19:04;99301.84;;;36.64;28.71
7180;BME280;3631;42.152;24.756;2022-07-22T11:21:33;99297.03;;;36.66;28.78
7180;BME280;3631;42.152;24.756;2022-07-22T11:24:02;99297.00;;;36.80;28.11
7180;BME280;3631;42.152;24.756;2022-07-22T11:26:35;99285.19;;;36.67;28.32
7180;BME280;3631;42.152;24.756;2022-07-22T11:29:02;99296.81;;;36.75;28.16
7180;BME280;3631;42.152;24.756;2022-07-22T11:31:29;99290.78;;;36.72;28.38
7180;BME280;3631;42.152;24.756;2022-07-22T11:34:08;99296.72;;;36.88;28.27
7180;BME280;3631;42.152;24.756;2022-07-22T11:36:38;99293.19;;;36.87;27.94
7180;BME280;3631;42.152;24.756;2022-07-22T11:39:06;99287.47;;;36.70;28.03
7180;BME280;3631;42.152;24.756;2022-07-22T11:41:34;99290.22;;;36.57;28.42
7180;BME280;3631;42.152;24.756;2022-07-22T11:44:02;99284.22;;;36.55;28.62
7180;BME280;3631;42.152;24.756;2022-07-22T11:46:35;99280.00;;;36.59;28.81
7180;BME280;3631;42.152;24.756;2022-07-22T11:49:02;99287.25;;;36.65;28.38
7180;BME280;3631;42.152;24.756;2022-07-22T11:51:31;99284.75;;;36.70;28.55
7180;BME280;3631;42.152;24.756;2022-07-22T11:54:00;99275.78;;;36.38;28.33
7180;BME280;3631;42.152;24.756;2022-07-22T11:56:27;99268.81;;;36.56;28.15
7180;BME280;3631;42.152;24.756;2022-07-22T11:58:55;99273.06;;;36.77;27.96
7180;BME280;3631;42.152;24.756;2022-07-22T12:01:24;99273.22;;;36.82;27.69
7180;BME280;3631;42.152;24.756;2022-07-22T12:03:54;99280.28;;;36.83;27.80
7180;BME280;3631;42.152;24.756;2022-07-22T12:06:22;99274.38;;;36.67;27.26
7180;BME280;3631;42.152;24.756;2022-07-22T12:08:51;99271.69;;;36.61;26.99
7180;BME280;3631;42.152;24.756;2022-07-22T12:11:22;99262.19;;;36.52;27.11
7180;BME280;3631;42.152;24.756;2022-07-22T12:13:52;99260.41;;;36.70;27.05
7180;BME280;3631;42.152;24.756;2022-07-22T12:16:27;99263.72;;;36.72;26.96
7180;BME280;3631;42.152;24.756;2022-07-22T12:18:56;99257.19;;;36.87;26.63
7180;BME280;3631;42.152;24.756;2022-07-22T12:21:25;99247.81;;;36.89;26.96
7180;BME280;3631;42.152;24.756;2022-07-22T12:23:56;99246.97;;;36.89;27.26
7180;BME280;3631;42.152;24.756;2022-07-22T12:26:42;99251.59;;;36.82;26.66
7180;BME280;3631;42.152;24.756;2022-07-22T12:29:17;99245.41;;;36.75;26.34
7180;BME280;3631;42.152;24.756;2022-07-22T12:31:44;99251.16;;;36.85;26.31
7180;BME280;3631;42.152;24.756;2022-07-22T12:34:12;99245.03;;;36.96;26.64
7180;BME280;3631;42.152;24.756;2022-07-22T12:36:43;99247.72;;;36.96;26.25
7180;BME280;3631;42.152;24.756;2022-07-22T12:39:14;99233.56;;;37.00;26.15
7180;BME280;3631;42.152;24.756;2022-07-22T12:41:48;99242.38;;;36.89;25.99
7180;BME280;3631;42.152;24.756;2022-07-22T12:44:19;99245.31;;;36.88;25.51
7180;BME280;3631;42.152;24.756;2022-07-22T12:46:49;99244.50;;;36.81;25.69
7180;BME280;3631;42.152;24.756;2022-07-22T12:49:18;99245.59;;;36.80;24.83
7180;BME280;3631;42.152;24.756;2022-07-22T12:52:08;99232.53;;;36.70;24.66
7180;BME280;3631;42.152;24.756;2022-07-22T12:54:36;99230.00;;;36.68;24.97
7180;BME280;3631;42.152;24.756;2022-07-22T12:57:06;99233.16;;;36.72;25.10
7180;BME280;3631;42.152;24.756;2022-07-22T12:59:33;99237.91;;;36.77;25.07
7180;BME280;3631;42.152;24.756;2022-07-22T13:02:00;99226.53;;;36.93;25.12
7180;BME280;3631;42.152;24.756;2022-07-22T13:04:27;99233.59;;;36.94;25.30
7180;BME280;3631;42.152;24.756;2022-07-22T13:06:55;99233.13;;;36.79;25.69
7180;BME280;3631;42.152;24.756;2022-07-22T13:09:22;99230.91;;;36.62;25.48
7180;BME280;3631;42.152;24.756;2022-07-22T13:11:49;99227.31;;;36.68;26.01
7180;BME280;3631;42.152;24.756;2022-07-22T13:14:17;99227.53;;;36.73;25.76
7180;BME280;3631;42.152;24.756;2022-07-22T13:16:44;99223.81;;;36.68;25.37